Archival Weather

Phoenix Sky Harbor Intl

Phoenix, Arizona (KPHX)

Report from: Thursday, December 7, 2023 12:51 PM MST
Current time: Monday, July 22, 2024 3:55 AM MST

Current weather – Weather history – Daily summaries
Weather forecast

Temperature22.8°C (73.0°F)
Dew point1.1°C (34.0°F)
Winds Calm
Visibility10 mi. (16.1 km)
Clouds Few clouds 18,000 ft. (5,486 m)
Few clouds 25,000 ft. (7,620 m)
Scattered clouds 29,000 ft. (8,839 m)
Altimeter29.95 in.Hg (1014 mB)
Relative humidity24 %
Density altitude1,022 ft. (312 m)
Sea-level pressure101.3 kPa (1013 mB, 29.91 in.Hg)
Remarks Automated weather observing station with precipitation discriminator
Flight conditions Visual Meteorological Conditions
Raw dataKPHX 071951Z 00000KT 10SM FEW180 FEW250 SCT290 23/01 A2995 RMK AO2 SLP129 T02280011
An error has occurred. This application may no longer respond until reloaded. Reload 🗙